Time;durP1;ratioP1;P1;durP2;ratioP2;P2;SDS_P1;SDS_P2;PMS_P1;PMS_P2;Temp;Humidity;BMP_temperature;BMP_pressure;BME280_temperature;BME280_humidity;BME280_pressure;Samples;Min_cycle;Max_cycle;Signal;HPM_P1;HPM_P2
2023/01/10 00:02:17;;;;;;;37.38;5.70;;;8.30;96.80;;;;;;5083225;28;20059;-55
2023/01/10 00:04:42;;;;;;;39.83;6.00;;;8.20;96.80;;;;;;5083266;28;20025;-55
2023/01/10 00:07:08;;;;;;;29.10;4.90;;;8.30;96.90;;;;;;5066204;28;20024;-55
2023/01/10 00:09:33;;;;;;;32.53;5.03;;;8.30;96.90;;;;;;5083003;28;20032;-55
2023/01/10 00:14:43;;;;;;;27.42;4.40;;;8.20;96.90;;;;;;5083174;28;20054;-55
2023/01/10 00:17:08;;;;;;;24.02;3.97;;;8.20;96.80;;;;;;5084366;28;20029;-55
2023/01/10 00:19:34;;;;;;;25.27;4.60;;;8.20;96.80;;;;;;5083039;28;20036;-55
2023/01/10 00:22:04;;;;;;;22.60;4.38;;;8.20;96.90;;;;;;5082851;28;20035;-55
2023/01/10 00:24:30;;;;;;;33.15;5.28;;;8.20;96.90;;;;;;5082966;28;20108;-55
2023/01/10 00:26:55;;;;;;;28.33;4.22;;;8.20;97.00;;;;;;5082764;28;20029;-55
2023/01/10 00:29:24;;;;;;;26.38;5.40;;;8.20;97.00;;;;;;5086523;28;20088;-55
2023/01/10 00:31:49;;;;;;;22.00;4.30;;;8.10;97.00;;;;;;5087824;28;20036;-55
2023/01/10 00:34:15;;;;;;;24.70;4.40;;;8.20;97.00;;;;;;5086349;28;20032;-55
2023/01/10 00:36:41;;;;;;;23.42;4.43;;;8.10;97.00;;;;;;5086342;28;20033;-55
2023/01/10 00:39:06;;;;;;;27.80;4.65;;;8.10;97.10;;;;;;5087598;28;20046;-55
2023/01/10 00:44:16;;;;;;;16.95;4.15;;;8.10;97.20;;;;;;5087352;28;20086;-55
2023/01/10 00:46:42;;;;;;;16.05;4.10;;;8.10;97.00;;;;;;5086223;28;20028;-55
2023/01/10 00:49:07;;;;;;;23.40;4.18;;;8.10;97.10;;;;;;5087566;28;20066;-55
2023/01/10 00:51:33;;;;;;;19.55;3.70;;;8.10;97.10;;;;;;5087855;28;20119;-55
2023/01/10 00:53:59;;;;;;;14.27;3.20;;;8.10;97.20;;;;;;5086208;28;20029;-55
2023/01/10 00:56:24;;;;;;;16.80;3.65;;;8.00;97.10;;;;;;5086152;28;20329;-55
2023/01/10 00:58:50;;;;;;;20.13;4.07;;;8.00;97.20;;;;;;5086103;28;20028;-55
2023/01/10 01:01:15;;;;;;;18.77;3.72;;;8.10;97.30;;;;;;5087407;28;20063;-55
2023/01/10 01:03:41;;;;;;;17.63;4.05;;;8.00;97.30;;;;;;5087567;28;20088;-55
2023/01/10 01:06:07;;;;;;;12.82;3.75;;;8.00;97.30;;;;;;5085907;28;20425;-55
2023/01/10 01:08:32;;;;;;;16.08;3.83;;;8.00;97.30;;;;;;5087310;28;20456;-55
2023/01/10 01:10:58;;;;;;;14.13;3.42;;;8.10;97.30;;;;;;5069454;28;20029;-55
2023/01/10 01:13:24;;;;;;;23.50;3.38;;;8.00;97.30;;;;;;5069072;28;20377;-55
2023/01/10 01:15:50;;;;;;;15.07;3.47;;;8.00;97.30;;;;;;5085725;28;20031;-55
2023/01/10 01:18:17;;;;;;;15.95;3.78;;;8.00;97.30;;;;;;5087268;28;20421;-55
2023/01/10 01:20:44;;;;;;;12.23;3.15;;;8.00;97.40;;;;;;5085881;28;20507;-55
2023/01/10 01:23:10;;;;;;;13.98;2.85;;;8.00;97.40;;;;;;5085562;28;20029;-55
2023/01/10 01:25:36;;;;;;;14.98;3.88;;;8.00;97.40;;;;;;5085485;28;20104;-55
2023/01/10 01:28:01;;;;;;;12.70;3.20;;;8.00;97.40;;;;;;5085486;28;20032;-55
2023/01/10 01:30:27;;;;;;;14.43;3.30;;;8.00;97.40;;;;;;5085317;28;20033;-54
2023/01/10 01:32:52;;;;;;;9.85;3.22;;;8.00;97.40;;;;;;5086667;28;20039;-55
2023/01/10 01:35:18;;;;;;;11.05;3.08;;;8.00;97.50;;;;;;5085166;28;20107;-55
2023/01/10 01:37:43;;;;;;;12.38;2.90;;;7.90;97.60;;;;;;5085259;28;20064;-55
2023/01/10 01:40:15;;;;;;;11.45;3.03;;;8.00;97.70;;;;;;5084100;28;20024;-55
2023/01/10 01:42:41;;;;;;;15.45;2.88;;;7.90;97.60;;;;;;5086489;28;20024;-55
2023/01/10 01:45:07;;;;;;;15.65;3.28;;;7.90;97.70;;;;;;5086306;28;20075;-55
2023/01/10 01:47:33;;;;;;;11.98;3.35;;;7.90;97.60;;;;;;5086450;28;20098;-55
2023/01/10 01:49:59;;;;;;;11.52;2.90;;;7.90;97.60;;;;;;5084819;28;20017;-55
2023/01/10 01:52:27;;;;;;;15.40;3.17;;;7.90;97.60;;;;;;5068082;28;20084;-55
2023/01/10 01:54:53;;;;;;;8.73;2.75;;;7.90;97.70;;;;;;5084784;28;20025;-55
2023/01/10 01:57:19;;;;;;;13.88;2.85;;;7.90;97.70;;;;;;5068160;28;20088;-55
2023/01/10 01:59:46;;;;;;;8.63;2.40;;;7.80;97.60;;;;;;5084634;28;20048;-55
2023/01/10 02:02:18;;;;;;;9.45;2.78;;;7.80;97.60;;;;;;5084532;28;20028;-55
2023/01/10 02:04:53;;;;;;;10.60;3.17;;;7.80;97.70;;;;;;5084605;28;20071;-55
2023/01/10 02:07:19;;;;;;;14.67;3.00;;;7.80;97.70;;;;;;5067911;28;20024;-55
2023/01/10 02:09:55;;;;;;;10.55;2.53;;;7.80;97.70;;;;;;5084774;28;20043;-55
2023/01/10 02:12:21;;;;;;;9.13;2.50;;;7.80;97.70;;;;;;5084536;28;20033;-55
2023/01/10 02:14:47;;;;;;;9.93;2.53;;;7.80;97.70;;;;;;5067640;28;20484;-55
2023/01/10 02:17:12;;;;;;;9.50;2.70;;;7.80;98.00;;;;;;5084360;28;20024;-55
2023/01/10 02:19:51;;;;;;;10.27;2.88;;;7.80;97.70;;;;;;5084419;28;20072;-55
2023/01/10 02:22:43;;;;;;;9.25;2.40;;;7.80;97.60;;;;;;5084304;28;20025;-55
2023/01/10 02:25:21;;;;;;;6.53;2.53;;;7.80;97.50;;;;;;5084401;28;20028;-55
2023/01/10 02:28:06;;;;;;;7.80;2.60;;;7.80;97.40;;;;;;5085601;28;20125;-55
2023/01/10 02:30:53;;;;;;;9.15;2.33;;;7.80;97.50;;;;;;5085551;28;20310;-55
2023/01/10 02:33:29;;;;;;;11.90;2.22;;;7.70;97.50;;;;;;5083979;28;20052;-55
2023/01/10 02:36:20;;;;;;;10.48;2.45;;;7.80;97.40;;;;;;5084122;28;20086;-55
2023/01/10 02:39:28;;;;;;;8.93;2.40;;;7.80;97.40;;;;;;5067734;28;20051;-55
2023/01/10 02:42:08;;;;;;;6.47;1.70;;;7.70;97.40;;;;;;5083901;28;20143;-55
2023/01/10 02:45:42;;;;;;;5.03;1.95;;;7.80;97.40;;;;;;5083885;28;20040;-55
2023/01/10 02:48:08;;;;;;;5.85;2.03;;;7.70;97.30;;;;;;5041308;28;20040;-54
2023/01/10 02:50:44;;;;;;;5.47;1.70;;;7.70;97.30;;;;;;5083735;28;20051;-55
2023/01/10 02:53:21;;;;;;;5.15;2.00;;;7.70;97.30;;;;;;5083785;28;20112;-54
2023/01/10 02:56:12;;;;;;;9.65;2.50;;;7.70;97.50;;;;;;5085081;28;20096;-55
2023/01/10 02:59:09;;;;;;;10.30;2.85;;;7.70;97.40;;;;;;5085252;28;20056;-55
2023/01/10 03:02:05;;;;;;;7.00;2.60;;;7.70;97.40;;;;;;5083734;28;20028;-55
2023/01/10 03:05:07;;;;;;;7.60;2.30;;;7.70;97.60;;;;;;5085183;28;20084;-55
2023/01/10 03:07:45;;;;;;;6.93;2.80;;;7.70;98.00;;;;;;5080028;28;20048;-55
2023/01/10 03:10:29;;;;;;;11.40;2.53;;;7.80;98.00;;;;;;5083559;28;20090;-55
2023/01/10 03:12:59;;;;;;;7.90;2.45;;;7.70;98.00;;;;;;5066655;28;20029;-55
2023/01/10 03:15:28;;;;;;;7.65;2.67;;;7.70;98.10;;;;;;5083560;28;20063;-55
2023/01/10 03:17:55;;;;;;;6.75;2.42;;;7.70;98.20;;;;;;5083566;28;20037;-55
2023/01/10 03:20:21;;;;;;;10.85;2.67;;;7.70;98.10;;;;;;5083611;28;20095;-55
2023/01/10 03:22:47;;;;;;;7.70;2.38;;;7.70;98.00;;;;;;5066972;28;20046;-55
2023/01/10 03:25:13;;;;;;;9.30;2.90;;;7.70;98.10;;;;;;5083547;28;20039;-55
2023/01/10 03:27:51;;;;;;;7.70;2.80;;;7.70;98.10;;;;;;5083358;28;20032;-55
2023/01/10 03:30:19;;;;;;;7.32;2.55;;;7.70;98.30;;;;;;5084636;28;20028;-55
2023/01/10 03:32:45;;;;;;;7.38;2.50;;;7.70;98.20;;;;;;5084535;28;20037;-55
2023/01/10 03:35:11;;;;;;;7.22;2.45;;;7.70;98.30;;;;;;5083429;28;20052;-55
2023/01/10 03:37:38;;;;;;;7.80;2.33;;;7.70;98.30;;;;;;5083482;28;20032;-55
2023/01/10 03:40:22;;;;;;;7.50;2.42;;;7.70;98.20;;;;;;5083057;28;20088;-55
2023/01/10 03:46:07;;;;;;;;;;;7.70;98.20;;;;;;5084991;28;20048;-55
2023/01/10 03:48:35;;;;;;;8.73;2.45;;;7.70;98.00;;;;;;5084510;28;19912;-55
2023/01/10 03:51:02;;;;;;;8.98;2.38;;;7.70;98.00;;;;;;5083038;28;20096;-55
2023/01/10 03:53:27;;;;;;;6.57;2.42;;;7.70;98.00;;;;;;5083212;28;20025;-55
2023/01/10 03:55:53;;;;;;;7.45;2.55;;;7.60;97.90;;;;;;5083144;28;20542;-56
2023/01/10 03:58:20;;;;;;;5.90;1.90;;;7.60;97.80;;;;;;5083084;28;20151;-55
2023/01/10 04:00:47;;;;;;;6.95;2.40;;;7.60;97.80;;;;;;5082877;28;20045;-56
2023/01/10 04:03:13;;;;;;;11.57;2.50;;;7.60;97.80;;;;;;5085040;28;20025;-56
2023/01/10 04:05:38;;;;;;;7.05;2.42;;;7.60;97.90;;;;;;5088354;28;20036;-56
2023/01/10 04:08:04;;;;;;;8.48;2.33;;;7.60;97.90;;;;;;5088203;28;20024;-55
2023/01/10 04:10:30;;;;;;;8.05;2.13;;;7.60;97.90;;;;;;5086775;28;20032;-56
2023/01/10 04:12:59;;;;;;;7.55;2.63;;;7.60;98.00;;;;;;5088284;28;20031;-55
2023/01/10 04:15:25;;;;;;;8.48;2.65;;;7.60;97.90;;;;;;5069784;28;20033;-56
2023/01/10 04:17:50;;;;;;;7.68;2.00;;;7.60;97.80;;;;;;5086754;28;20334;-56
2023/01/10 04:20:16;;;;;;;6.80;2.50;;;7.60;97.80;;;;;;5087891;28;20457;-55
2023/01/10 04:22:43;;;;;;;6.53;2.38;;;7.60;97.90;;;;;;5087948;28;20021;-56
2023/01/10 04:25:09;;;;;;;7.55;2.22;;;7.60;97.90;;;;;;5069602;28;20028;-55
2023/01/10 04:27:34;;;;;;;5.97;2.38;;;7.60;97.80;;;;;;5086521;28;20025;-55
2023/01/10 04:30:00;;;;;;;7.28;2.58;;;7.60;97.80;;;;;;5086149;28;20017;-55
2023/01/10 04:32:25;;;;;;;8.07;2.20;;;7.60;98.10;;;;;;5087694;28;20016;-56
2023/01/10 04:34:52;;;;;;;5.07;2.17;;;7.60;97.80;;;;;;5087580;28;20044;-55
2023/01/10 04:37:18;;;;;;;4.25;1.90;;;7.50;97.80;;;;;;5086321;28;20025;-55
2023/01/10 04:39:44;;;;;;;6.30;1.83;;;7.50;97.80;;;;;;5086785;28;20028;-55
2023/01/10 04:42:09;;;;;;;7.70;2.33;;;7.50;97.80;;;;;;5086259;28;20036;-55
2023/01/10 04:44:35;;;;;;;6.05;2.20;;;7.50;97.80;;;;;;5069505;28;20031;-56
2023/01/10 04:47:00;;;;;;;5.40;2.05;;;7.50;97.90;;;;;;5086595;28;20032;-55
2023/01/10 04:49:26;;;;;;;5.78;2.10;;;7.50;97.90;;;;;;5086192;28;20017;-55
2023/01/10 04:51:51;;;;;;;6.00;2.00;;;7.50;98.00;;;;;;5086206;28;20036;-56
2023/01/10 04:54:21;;;;;;;9.48;2.35;;;7.50;97.90;;;;;;5086227;28;20051;-55
2023/01/10 04:56:46;;;;;;;9.05;1.77;;;7.50;97.90;;;;;;5087429;28;20101;-55
2023/01/10 04:59:12;;;;;;;4.95;2.10;;;7.50;97.90;;;;;;5087334;28;20032;-55
2023/01/10 05:01:38;;;;;;;6.50;1.98;;;7.50;97.90;;;;;;5085936;28;20088;-56
2023/01/10 05:04:04;;;;;;;6.15;2.00;;;7.50;97.90;;;;;;5085881;28;20032;-55
2023/01/10 05:06:29;;;;;;;5.65;1.80;;;7.50;97.90;;;;;;5085689;28;20088;-56
2023/01/10 05:08:55;;;;;;;6.60;1.77;;;7.50;97.90;;;;;;5085594;28;20044;-55
2023/01/10 05:11:20;;;;;;;5.22;1.83;;;7.50;98.00;;;;;;5068834;28;20044;-56
2023/01/10 05:13:46;;;;;;;6.90;1.92;;;7.50;98.00;;;;;;5084658;28;20021;-55
2023/01/10 05:16:11;;;;;;;6.93;1.85;;;7.60;98.00;;;;;;5085505;28;20074;-56
2023/01/10 05:18:37;;;;;;;9.05;1.92;;;7.60;98.00;;;;;;5085667;28;20354;-56
2023/01/10 05:21:04;;;;;;;10.23;2.42;;;7.60;98.00;;;;;;5085330;28;20361;-55
2023/01/10 05:23:30;;;;;;;8.32;2.47;;;7.60;98.00;;;;;;5086819;28;20075;-55
2023/01/10 05:25:55;;;;;;;8.88;2.22;;;7.60;98.10;;;;;;5087062;28;20032;-55
2023/01/10 05:28:21;;;;;;;13.27;2.40;;;7.60;98.20;;;;;;5086678;28;20021;-56
2023/01/10 05:30:46;;;;;;;9.23;2.10;;;7.60;98.30;;;;;;5087033;28;20036;-56
2023/01/10 05:33:12;;;;;;;4.22;1.65;;;7.60;98.30;;;;;;5085580;28;20051;-55
2023/01/10 05:35:38;;;;;;;7.45;1.83;;;7.50;98.30;;;;;;5085157;28;20028;-55
2023/01/10 05:38:03;;;;;;;10.20;2.20;;;7.60;98.30;;;;;;5085013;28;20055;-56
2023/01/10 05:40:29;;;;;;;8.38;2.28;;;7.60;98.20;;;;;;5086445;28;20059;-56
2023/01/10 05:42:54;;;;;;;11.75;2.35;;;7.50;98.20;;;;;;5086400;28;20027;-55
2023/01/10 05:45:20;;;;;;;9.07;2.22;;;7.50;98.30;;;;;;5084957;28;20040;-56
2023/01/10 05:47:46;;;;;;;10.57;2.30;;;7.50;98.30;;;;;;5086522;28;20021;-55
2023/01/10 05:50:11;;;;;;;18.27;2.30;;;7.40;98.40;;;;;;5086304;28;20448;-56
2023/01/10 05:52:37;;;;;;;9.00;1.90;;;7.50;98.30;;;;;;5086227;28;20024;-56
2023/01/10 05:55:03;;;;;;;6.35;2.25;;;7.50;98.30;;;;;;5086001;28;20034;-55
2023/01/10 05:57:28;;;;;;;6.38;2.45;;;7.50;98.40;;;;;;5068099;28;20025;-56
2023/01/10 05:59:54;;;;;;;6.28;1.75;;;7.50;98.30;;;;;;5086024;28;20039;-56
2023/01/10 06:02:19;;;;;;;7.50;2.25;;;7.40;98.30;;;;;;5084710;28;20058;-55
2023/01/10 06:04:45;;;;;;;8.20;1.65;;;7.50;98.30;;;;;;5085814;28;20464;-55
2023/01/10 06:07:10;;;;;;;10.95;2.03;;;7.40;98.30;;;;;;5084509;28;20088;-56
2023/01/10 06:09:36;;;;;;;8.02;1.83;;;7.50;98.40;;;;;;5085659;28;20080;-56
2023/01/10 06:12:02;;;;;;;7.13;2.00;;;7.40;98.40;;;;;;5085994;28;20063;-56
2023/01/10 06:14:27;;;;;;;7.18;1.83;;;7.50;98.50;;;;;;5085836;28;20024;-55
2023/01/10 06:16:53;;;;;;;7.35;1.98;;;7.40;98.50;;;;;;5085911;28;20037;-55
2023/01/10 06:19:18;;;;;;;7.53;2.22;;;7.50;98.40;;;;;;5085596;28;20084;-56
2023/01/10 06:21:44;;;;;;;4.65;1.45;;;7.50;98.40;;;;;;5084177;28;20052;-56
2023/01/10 06:24:09;;;;;;;6.82;2.00;;;7.50;98.40;;;;;;5084142;28;20101;-56
2023/01/10 06:26:35;;;;;;;5.53;2.10;;;7.40;98.40;;;;;;5085273;28;20457;-56
2023/01/10 06:29:00;;;;;;;5.20;1.50;;;7.40;98.40;;;;;;5084306;28;20028;-56
2023/01/10 06:31:26;;;;;;;3.38;1.70;;;7.50;98.40;;;;;;5085585;28;20037;-56
2023/01/10 06:33:52;;;;;;;8.45;2.22;;;7.50;98.50;;;;;;5085465;28;20028;-55
2023/01/10 06:36:17;;;;;;;6.22;1.80;;;7.40;98.50;;;;;;5083913;28;20503;-56
2023/01/10 06:38:43;;;;;;;5.45;2.13;;;7.40;98.50;;;;;;5085275;28;20029;-56
2023/01/10 06:41:12;;;;;;;4.45;1.52;;;7.50;98.60;;;;;;5083704;28;20100;-56
2023/01/10 06:43:44;;;;;;;6.45;1.63;;;7.50;98.60;;;;;;5084065;28;20020;-55
2023/01/10 06:46:15;;;;;;;11.18;2.28;;;7.40;98.60;;;;;;5084054;28;20032;-55
2023/01/10 06:48:42;;;;;;;7.97;1.70;;;7.40;98.60;;;;;;5084028;28;20106;-55
2023/01/10 06:51:08;;;;;;;5.70;2.10;;;7.40;98.50;;;;;;5083725;28;20039;-55
2023/01/10 06:53:33;;;;;;;5.63;1.75;;;7.40;98.60;;;;;;5083517;28;20416;-55
2023/01/10 06:55:59;;;;;;;11.35;1.80;;;7.50;98.60;;;;;;5083768;28;20048;-56
2023/01/10 06:58:25;;;;;;;5.05;1.65;;;7.50;98.50;;;;;;5083737;28;20063;-55
2023/01/10 07:00:50;;;;;;;6.22;1.67;;;7.50;98.50;;;;;;5085091;28;20040;-55
2023/01/10 07:03:16;;;;;;;5.45;1.73;;;7.40;98.40;;;;;;5083469;28;20025;-56
2023/01/10 07:05:42;;;;;;;5.57;1.75;;;7.40;98.40;;;;;;5083408;28;20066;-56
2023/01/10 07:08:07;;;;;;;5.50;1.60;;;7.40;98.40;;;;;;5083583;28;20021;-55
2023/01/10 07:10:33;;;;;;;4.15;1.45;;;7.40;98.60;;;;;;5083281;28;20032;-56
2023/01/10 07:12:58;;;;;;;3.72;1.30;;;7.40;98.30;;;;;;5083311;28;20021;-55
2023/01/10 07:15:25;;;;;;;6.20;2.00;;;7.40;98.20;;;;;;5083418;28;20044;-56
2023/01/10 07:17:50;;;;;;;7.10;1.70;;;7.40;98.20;;;;;;5083406;28;20167;-55
2023/01/10 07:20:16;;;;;;;8.20;2.17;;;7.40;98.20;;;;;;5084440;28;20033;-56
2023/01/10 07:22:41;;;;;;;6.93;1.63;;;7.40;98.20;;;;;;5083587;28;20050;-56
2023/01/10 07:25:07;;;;;;;6.75;1.85;;;7.40;98.20;;;;;;5083407;28;20016;-56
2023/01/10 07:27:33;;;;;;;5.63;1.80;;;7.40;98.20;;;;;;5084779;28;20012;-56
2023/01/10 07:29:59;;;;;;;4.25;1.42;;;7.40;98.10;;;;;;5082784;28;20027;-55
2023/01/10 07:32:25;;;;;;;5.35;1.90;;;7.40;98.10;;;;;;5083385;28;20028;-56
2023/01/10 07:34:50;;;;;;;3.88;1.58;;;7.40;98.10;;;;;;5081188;28;20025;-56
2023/01/10 07:37:16;;;;;;;4.53;1.65;;;7.40;98.00;;;;;;5083297;28;20236;-55
2023/01/10 07:39:41;;;;;;;4.18;1.60;;;7.40;98.00;;;;;;5086691;28;20027;-56
2023/01/10 07:42:10;;;;;;;3.25;1.60;;;7.40;97.90;;;;;;5085072;28;20055;-56
2023/01/10 07:44:35;;;;;;;8.48;1.73;;;7.40;97.90;;;;;;5087005;28;20519;-55
2023/01/10 07:47:01;;;;;;;4.40;1.50;;;7.40;97.80;;;;;;5086759;28;20024;-56
2023/01/10 07:49:26;;;;;;;4.20;1.30;;;7.40;97.80;;;;;;5085032;28;20120;-55
2023/01/10 07:51:52;;;;;;;5.38;1.52;;;7.40;97.70;;;;;;5086546;28;20119;-56
2023/01/10 07:54:18;;;;;;;5.45;1.60;;;7.40;97.70;;;;;;5086462;28;20017;-56
2023/01/10 07:56:43;;;;;;;6.38;1.90;;;7.40;97.70;;;;;;5086325;28;20037;-55
2023/01/10 07:59:09;;;;;;;13.32;1.77;;;7.40;97.90;;;;;;5084808;28;20025;-56
2023/01/10 08:01:34;;;;;;;18.15;2.10;;;7.40;97.60;;;;;;5085236;28;20062;-56
2023/01/10 08:04:00;;;;;;;17.40;2.90;;;7.40;97.60;;;;;;5086820;28;20463;-55
2023/01/10 08:06:25;;;;;;;8.80;2.55;;;7.40;97.60;;;;;;5086802;28;20081;-55
2023/01/10 08:08:51;;;;;;;14.25;2.22;;;7.40;97.70;;;;;;5086175;28;20025;-56
2023/01/10 08:11:16;;;;;;;20.83;2.17;;;7.40;97.60;;;;;;5086822;28;20117;-56
2023/01/10 08:13:42;;;;;;;22.92;2.55;;;7.40;97.50;;;;;;5086877;28;20024;-56
2023/01/10 08:16:07;;;;;;;11.00;2.10;;;7.50;97.50;;;;;;5086398;28;20043;-56
2023/01/10 08:18:33;;;;;;;20.45;2.90;;;7.50;97.40;;;;;;5087986;28;20051;-55
2023/01/10 08:20:59;;;;;;;26.13;3.28;;;7.50;97.40;;;;;;5069662;28;20044;-56
2023/01/10 08:23:25;;;;;;;23.13;2.75;;;7.50;97.30;;;;;;5087758;28;20025;-56
2023/01/10 08:25:51;;;;;;;27.77;3.78;;;7.50;97.40;;;;;;5086391;28;20028;-55
2023/01/10 08:28:17;;;;;;;27.95;3.88;;;7.50;97.40;;;;;;5069852;28;20025;-55
2023/01/10 08:30:42;;;;;;;37.25;3.70;;;7.50;97.30;;;;;;5075473;28;20120;-56
2023/01/10 08:33:08;;;;;;;23.75;3.28;;;7.50;97.30;;;;;;5065771;28;20116;-56
2023/01/10 08:35:41;;;;;;;49.65;4.00;;;7.50;97.30;;;;;;5063993;28;20496;-55
2023/01/10 08:38:06;;;;;;;49.28;4.47;;;7.50;97.30;;;;;;5064111;28;20560;-56
2023/01/10 08:40:32;;;;;;;47.55;6.43;;;7.50;97.40;;;;;;5063860;28;20051;-56
2023/01/10 08:43:05;;;;;;;44.50;4.90;;;7.50;97.40;;;;;;5064283;28;20075;-54
2023/01/10 08:45:31;;;;;;;31.92;4.10;;;7.60;97.40;;;;;;5066371;28;20040;-54
2023/01/10 08:47:56;;;;;;;28.08;3.42;;;7.60;97.40;;;;;;5074777;28;20025;-55
2023/01/10 08:50:22;;;;;;;57.28;5.68;;;7.60;97.40;;;;;;5086227;28;20111;-55
2023/01/10 08:52:48;;;;;;;44.22;5.35;;;7.60;97.40;;;;;;5086454;28;20036;-56
2023/01/10 08:55:13;;;;;;;40.92;5.32;;;7.60;97.30;;;;;;5087559;28;20037;-55
2023/01/10 08:57:39;;;;;;;19.35;3.72;;;7.60;97.30;;;;;;5087621;28;20043;-56
2023/01/10 09:00:05;;;;;;;27.58;3.22;;;7.60;97.30;;;;;;5085324;28;20464;-54
2023/01/10 09:02:31;;;;;;;24.75;4.00;;;7.60;97.30;;;;;;5085479;28;20416;-56
2023/01/10 09:04:56;;;;;;;33.70;3.78;;;7.60;97.20;;;;;;5086169;28;20085;-56
2023/01/10 09:07:22;;;;;;;22.40;3.80;;;7.60;97.10;;;;;;5087420;28;20021;-56
2023/01/10 09:09:47;;;;;;;22.45;3.83;;;7.60;97.10;;;;;;5086224;28;20024;-56
2023/01/10 09:14:57;;;;;;;36.20;4.70;;;7.60;97.10;;;;;;5085849;28;20051;-56
2023/01/10 09:17:22;;;;;;;28.02;3.75;;;7.60;97.10;;;;;;5087053;28;20092;-56
2023/01/10 09:19:48;;;;;;;40.00;4.85;;;7.60;97.10;;;;;;5086822;28;20036;-56
2023/01/10 09:22:14;;;;;;;53.35;6.50;;;7.60;97.10;;;;;;5085361;28;20040;-56
2023/01/10 09:24:40;;;;;;;58.20;6.07;;;7.60;97.20;;;;;;5086931;28;20448;-56
2023/01/10 09:27:06;;;;;;;45.45;6.35;;;7.70;97.30;;;;;;5085481;28;20032;-55
2023/01/10 09:29:31;;;;;;;65.60;5.82;;;7.70;97.30;;;;;;5085282;28;20155;-55
2023/01/10 09:31:57;;;;;;;102.20;8.70;;;7.70;97.40;;;;;;5086676;28;20025;-56
2023/01/10 09:34:23;;;;;;;69.65;7.82;;;7.70;97.30;;;;;;5085526;28;20028;-56
2023/01/10 09:36:49;;;;;;;61.97;6.78;;;7.80;97.30;;;;;;5084663;28;20094;-56
2023/01/10 09:39:14;;;;;;;173.57;14.95;;;7.80;97.20;;;;;;5085737;28;20028;-55
2023/01/10 09:41:59;;;;;;;90.70;9.05;;;7.80;97.20;;;;;;5084420;28;20025;-55
2023/01/10 09:44:50;;;;;;;110.18;11.10;;;7.80;97.20;;;;;;5084880;28;20033;-56
2023/01/10 09:47:40;;;;;;;56.25;6.20;;;7.80;97.20;;;;;;5085553;28;20028;-55
2023/01/10 09:50:16;;;;;;;56.38;7.72;;;7.80;97.10;;;;;;5084111;28;20021;-56
2023/01/10 09:52:54;;;;;;;62.25;6.72;;;7.80;97.00;;;;;;5084303;28;20028;-56
2023/01/10 09:55:26;;;;;;;55.13;6.97;;;7.80;97.00;;;;;;5084269;28;20028;-56
2023/01/10 09:57:56;;;;;;;59.88;6.25;;;7.80;97.00;;;;;;5084785;28;20040;-55
2023/01/10 10:00:26;;;;;;;75.95;6.63;;;7.80;96.90;;;;;;5083835;28;20041;-55
2023/01/10 10:02:52;;;;;;;56.80;5.88;;;7.80;96.90;;;;;;5084335;28;20028;-56
2023/01/10 10:05:18;;;;;;;69.38;6.88;;;7.90;96.90;;;;;;5084540;28;20372;-56
2023/01/10 10:07:43;;;;;;;76.32;8.00;;;7.90;96.90;;;;;;5085859;28;20024;-56
2023/01/10 10:10:17;;;;;;;83.70;9.38;;;7.90;96.90;;;;;;5067028;28;20132;-56
2023/01/10 10:13:04;;;;;;;67.95;7.53;;;7.90;97.00;;;;;;5084187;28;20028;-56
2023/01/10 10:15:45;;;;;;;56.40;6.65;;;8.00;97.00;;;;;;5085485;28;20111;-56
2023/01/10 10:18:39;;;;;;;80.20;7.00;;;8.00;97.00;;;;;;5084217;28;20029;-56
2023/01/10 10:21:36;;;;;;;69.95;6.55;;;8.00;96.90;;;;;;5080650;28;20063;-56
2023/01/10 10:24:12;;;;;;;49.30;6.55;;;8.00;96.90;;;;;;5063550;28;20643;-56
2023/01/10 10:26:44;;;;;;;45.03;6.35;;;8.00;96.90;;;;;;5095376;28;20095;-55
2023/01/10 10:29:39;;;;;;;48.63;5.90;;;8.00;96.80;;;;;;5083572;28;20020;-56
2023/01/10 10:32:21;;;;;;;45.22;6.32;;;8.10;96.90;;;;;;5073806;28;20040;-56
2023/01/10 10:34:52;;;;;;;66.32;7.55;;;8.10;96.80;;;;;;5081687;28;20024;-56
2023/01/10 10:37:24;;;;;;;98.88;9.82;;;8.10;96.80;;;;;;5099709;28;20032;-55
2023/01/10 10:39:54;;;;;;;58.55;6.93;;;8.10;97.00;;;;;;5083494;28;20032;-56
2023/01/10 10:42:19;;;;;;;73.50;7.03;;;8.20;97.10;;;;;;5100370;28;20132;-56
2023/01/10 10:45:06;;;;;;;80.18;7.65;;;8.20;97.00;;;;;;5085125;28;20139;-56
2023/01/10 10:47:33;;;;;;;58.33;7.40;;;8.20;96.90;;;;;;5083695;28;20032;-56
2023/01/10 10:50:13;;;;;;;44.92;5.32;;;8.20;96.80;;;;;;5083115;28;20020;-56
2023/01/10 10:52:39;;;;;;;67.30;7.57;;;8.30;96.70;;;;;;5093833;28;20147;-55
2023/01/10 10:55:05;;;;;;;66.05;7.63;;;8.30;96.60;;;;;;5080511;28;20039;-56
2023/01/10 10:57:32;;;;;;;44.55;6.70;;;8.30;96.60;;;;;;5093118;28;20369;-56
2023/01/10 10:59:59;;;;;;;67.35;7.97;;;8.30;96.60;;;;;;5075100;28;20025;-56
2023/01/10 11:02:27;;;;;;;49.38;7.05;;;8.30;96.70;;;;;;5075801;28;20507;-56
2023/01/10 11:05:04;;;;;;;70.25;8.02;;;8.30;96.60;;;;;;5082021;28;20032;-56
2023/01/10 11:07:33;;;;;;;85.15;8.73;;;8.30;96.50;;;;;;5065978;28;20057;-56
2023/01/10 11:12:33;;;;;;;76.95;8.40;;;8.30;96.50;;;;;;5082668;28;20028;-56
2023/01/10 11:15:00;;;;;;;79.45;9.85;;;8.40;96.40;;;;;;5067804;28;20036;-56
2023/01/10 11:17:29;;;;;;;110.50;12.48;;;8.40;96.40;;;;;;5098544;28;20080;-56
2023/01/10 11:20:02;;;;;;;89.53;11.95;;;8.40;96.40;;;;;;5069957;28;20032;-55
2023/01/10 11:22:32;;;;;;;128.40;11.13;;;8.40;96.40;;;;;;5079912;28;20143;-56
2023/01/10 11:25:01;;;;;;;96.25;10.73;;;8.40;96.30;;;;;;5082809;28;20024;-55
2023/01/10 11:27:28;;;;;;;120.57;13.82;;;8.50;96.30;;;;;;5097084;28;20031;-56
2023/01/10 11:29:55;;;;;;;146.18;14.52;;;8.40;96.20;;;;;;5096056;28;20392;-56
2023/01/10 11:32:26;;;;;;;101.55;11.40;;;8.30;96.30;;;;;;5092926;28;20092;-56
2023/01/10 11:34:54;;;;;;;121.70;12.15;;;8.50;96.20;;;;;;5081501;28;20115;-56
2023/01/10 11:37:21;;;;;;;129.05;14.25;;;8.50;96.10;;;;;;5060250;28;20033;-56
2023/01/10 11:39:46;;;;;;;116.85;13.05;;;8.50;96.10;;;;;;5078315;28;20187;-56
2023/01/10 11:42:28;;;;;;;127.35;14.45;;;8.50;96.00;;;;;;5085395;28;20131;-56
2023/01/10 11:44:54;;;;;;;98.85;12.57;;;8.50;96.00;;;;;;5110664;28;20103;-56
2023/01/10 11:47:20;;;;;;;92.45;10.15;;;8.50;96.00;;;;;;5079949;28;20051;-56
2023/01/10 11:49:46;;;;;;;99.25;12.02;;;8.50;95.90;;;;;;5097127;28;20025;-56
2023/01/10 11:52:19;;;;;;;98.30;10.88;;;8.50;95.80;;;;;;5077065;28;20039;-56
2023/01/10 11:54:45;;;;;;;82.97;10.27;;;8.50;95.80;;;;;;5046811;28;20384;-56
2023/01/10 11:57:18;;;;;;;139.23;12.43;;;8.50;95.80;;;;;;5065537;28;20039;-56
2023/01/10 12:00:04;;;;;;;116.00;14.60;;;8.50;95.40;;;;;;5048429;28;20028;-55
2023/01/10 12:02:40;;;;;;;101.30;12.05;;;8.50;95.50;;;;;;5077515;28;20047;-56
2023/01/10 12:05:11;;;;;;;122.38;12.98;;;8.50;95.60;;;;;;5075966;28;20027;-56
2023/01/10 12:07:56;;;;;;;121.70;12.55;;;8.60;95.60;;;;;;5077527;28;20029;-56
2023/01/10 12:10:23;;;;;;;118.85;14.27;;;8.50;95.50;;;;;;5070396;28;20037;-56
2023/01/10 12:12:59;;;;;;;124.28;12.60;;;8.60;95.50;;;;;;5067504;28;20043;-56
2023/01/10 12:15:27;;;;;;;94.10;11.30;;;8.60;95.40;;;;;;5076029;28;20098;-56
2023/01/10 12:17:56;;;;;;;104.80;13.57;;;8.60;95.30;;;;;;5074407;28;20090;-55
2023/01/10 12:20:22;;;;;;;121.70;12.95;;;8.60;95.30;;;;;;5083915;28;20497;-56
2023/01/10 12:22:59;;;;;;;138.07;14.38;;;8.60;95.10;;;;;;5073830;28;20111;-56
2023/01/10 12:25:31;;;;;;;92.75;12.20;;;8.60;95.30;;;;;;5069623;28;20028;-56
2023/01/10 12:27:56;;;;;;;121.90;14.32;;;8.70;95.10;;;;;;5094391;28;20028;-56
2023/01/10 12:30:27;;;;;;;117.43;12.52;;;8.70;95.00;;;;;;5067987;28;20051;-56
2023/01/10 12:32:53;;;;;;;130.32;13.93;;;8.60;94.90;;;;;;5088593;28;20028;-56
2023/01/10 12:35:33;;;;;;;117.30;14.65;;;8.70;95.00;;;;;;5083965;28;20024;-56
2023/01/10 12:38:05;;;;;;;121.85;14.57;;;8.70;94.90;;;;;;5067578;28;20028;-55
2023/01/10 12:40:43;;;;;;;131.27;13.38;;;8.70;94.90;;;;;;5084675;28;20041;-56
2023/01/10 12:46:22;;;;;;;93.57;11.35;;;8.70;94.50;;;;;;5062932;28;20036;-56
2023/01/10 12:48:54;;;;;;;106.18;10.88;;;8.70;94.60;;;;;;5077764;28;20021;-56
2023/01/10 12:51:21;;;;;;;78.63;10.32;;;8.60;94.40;;;;;;5076872;28;20040;-55
2023/01/10 12:54:00;;;;;;;118.00;14.25;;;8.60;94.40;;;;;;5078964;28;20111;-55
2023/01/10 12:56:25;;;;;;;74.45;10.07;;;8.60;94.30;;;;;;5069391;28;20476;-55
2023/01/10 12:58:54;;;;;;;99.90;12.40;;;8.60;94.30;;;;;;5079567;28;20028;-55
2023/01/10 13:01:30;;;;;;;93.40;11.55;;;8.60;94.20;;;;;;5095569;28;20465;-55
2023/01/10 13:04:08;;;;;;;104.85;11.25;;;8.60;94.20;;;;;;5072133;28;20036;-55
2023/01/10 13:06:37;;;;;;;93.68;12.27;;;8.60;94.10;;;;;;5062833;28;20039;-55
2023/01/10 13:09:08;;;;;;;84.80;10.68;;;8.60;94.10;;;;;;5071943;28;20025;-55
2023/01/10 13:11:41;;;;;;;115.72;11.95;;;8.60;94.10;;;;;;5075683;28;20075;-55
2023/01/10 13:14:06;;;;;;;87.57;10.82;;;8.60;94.10;;;;;;5065890;28;20132;-55
2023/01/10 13:16:44;;;;;;;92.80;12.85;;;8.60;94.00;;;;;;5078688;28;20035;-55